sensor_id;sensor_type;location;lat;lon;timestamp;P1;durP1;ratioP1;P2;durP2;ratioP2
20824;SDS011;10573;50.936;6.978;2023-07-20T00:02:19;4.27;;;2.50;;
20824;SDS011;10573;50.936;6.978;2023-07-20T00:04:44;7.30;;;2.75;;
20824;SDS011;10573;50.936;6.978;2023-07-20T00:07:10;7.03;;;2.50;;
20824;SDS011;10573;50.936;6.978;2023-07-20T00:09:35;7.90;;;2.83;;
20824;SDS011;10573;50.936;6.978;2023-07-20T00:12:00;5.18;;;2.67;;
20824;SDS011;10573;50.936;6.978;2023-07-20T00:14:26;6.97;;;2.53;;
20824;SDS011;10573;50.936;6.978;2023-07-20T00:16:52;4.95;;;2.45;;
20824;SDS011;10573;50.936;6.978;2023-07-20T00:19:23;5.70;;;2.30;;
20824;SDS011;10573;50.936;6.978;2023-07-20T00:21:50;5.57;;;2.65;;
20824;SDS011;10573;50.936;6.978;2023-07-20T00:24:16;5.90;;;2.38;;
20824;SDS011;10573;50.936;6.978;2023-07-20T00:26:41;4.13;;;2.40;;
20824;SDS011;10573;50.936;6.978;2023-07-20T00:29:07;5.65;;;2.33;;
20824;SDS011;10573;50.936;6.978;2023-07-20T00:31:32;4.70;;;2.30;;
20824;SDS011;10573;50.936;6.978;2023-07-20T00:34:00;6.32;;;2.20;;
20824;SDS011;10573;50.936;6.978;2023-07-20T00:36:25;4.72;;;2.33;;
20824;SDS011;10573;50.936;6.978;2023-07-20T00:38:50;4.20;;;2.27;;
20824;SDS011;10573;50.936;6.978;2023-07-20T00:41:16;7.90;;;2.60;;
20824;SDS011;10573;50.936;6.978;2023-07-20T00:43:41;7.28;;;2.58;;
20824;SDS011;10573;50.936;6.978;2023-07-20T00:46:07;9.23;;;2.63;;
20824;SDS011;10573;50.936;6.978;2023-07-20T00:48:33;7.78;;;2.67;;
20824;SDS011;10573;50.936;6.978;2023-07-20T00:50:59;6.67;;;2.70;;
20824;SDS011;10573;50.936;6.978;2023-07-20T00:53:26;6.90;;;3.13;;
20824;SDS011;10573;50.936;6.978;2023-07-20T00:55:52;8.73;;;3.13;;
20824;SDS011;10573;50.936;6.978;2023-07-20T00:58:18;7.20;;;3.23;;
20824;SDS011;10573;50.936;6.978;2023-07-20T01:00:44;4.57;;;2.70;;
20824;SDS011;10573;50.936;6.978;2023-07-20T01:03:09;6.30;;;2.83;;
20824;SDS011;10573;50.936;6.978;2023-07-20T01:05:48;6.38;;;2.97;;
20824;SDS011;10573;50.936;6.978;2023-07-20T01:08:17;8.77;;;2.88;;
20824;SDS011;10573;50.936;6.978;2023-07-20T01:10:59;4.57;;;2.70;;
20824;SDS011;10573;50.936;6.978;2023-07-20T01:13:32;7.18;;;2.78;;
20824;SDS011;10573;50.936;6.978;2023-07-20T01:16:01;7.40;;;2.80;;
20824;SDS011;10573;50.936;6.978;2023-07-20T01:18:26;6.55;;;2.60;;
20824;SDS011;10573;50.936;6.978;2023-07-20T01:20:53;7.27;;;2.97;;
20824;SDS011;10573;50.936;6.978;2023-07-20T01:23:32;6.13;;;2.67;;
20824;SDS011;10573;50.936;6.978;2023-07-20T01:26:16;5.20;;;2.35;;
20824;SDS011;10573;50.936;6.978;2023-07-20T01:31:36;7.03;;;2.67;;
20824;SDS011;10573;50.936;6.978;2023-07-20T01:34:03;5.20;;;2.50;;
20824;SDS011;10573;50.936;6.978;2023-07-20T01:36:34;3.40;;;2.20;;
20824;SDS011;10573;50.936;6.978;2023-07-20T01:39:01;4.07;;;2.17;;
20824;SDS011;10573;50.936;6.978;2023-07-20T01:41:29;6.10;;;2.45;;
20824;SDS011;10573;50.936;6.978;2023-07-20T01:43:57;3.83;;;2.30;;
20824;SDS011;10573;50.936;6.978;2023-07-20T01:46:24;3.42;;;2.30;;
20824;SDS011;10573;50.936;6.978;2023-07-20T01:48:49;3.47;;;2.17;;
20824;SDS011;10573;50.936;6.978;2023-07-20T01:51:16;5.55;;;2.30;;
20824;SDS011;10573;50.936;6.978;2023-07-20T01:53:43;4.35;;;2.10;;
20824;SDS011;10573;50.936;6.978;2023-07-20T01:56:08;4.17;;;2.20;;
20824;SDS011;10573;50.936;6.978;2023-07-20T01:58:34;5.28;;;2.40;;
20824;SDS011;10573;50.936;6.978;2023-07-20T02:01:00;7.10;;;2.60;;
20824;SDS011;10573;50.936;6.978;2023-07-20T02:03:26;4.47;;;2.85;;
20824;SDS011;10573;50.936;6.978;2023-07-20T02:05:52;4.80;;;2.40;;
20824;SDS011;10573;50.936;6.978;2023-07-20T02:08:17;5.82;;;2.50;;
20824;SDS011;10573;50.936;6.978;2023-07-20T02:10:45;4.15;;;3.03;;
20824;SDS011;10573;50.936;6.978;2023-07-20T02:13:12;6.35;;;2.80;;
20824;SDS011;10573;50.936;6.978;2023-07-20T02:15:37;4.47;;;2.87;;
20824;SDS011;10573;50.936;6.978;2023-07-20T02:18:03;5.43;;;3.10;;
20824;SDS011;10573;50.936;6.978;2023-07-20T02:20:28;6.60;;;3.25;;
20824;SDS011;10573;50.936;6.978;2023-07-20T02:22:54;7.13;;;3.20;;
20824;SDS011;10573;50.936;6.978;2023-07-20T02:25:19;5.75;;;3.40;;
20824;SDS011;10573;50.936;6.978;2023-07-20T02:27:45;5.23;;;2.90;;
20824;SDS011;10573;50.936;6.978;2023-07-20T02:30:10;4.10;;;3.00;;
20824;SDS011;10573;50.936;6.978;2023-07-20T02:32:36;6.00;;;3.60;;
20824;SDS011;10573;50.936;6.978;2023-07-20T02:35:02;6.53;;;3.10;;
20824;SDS011;10573;50.936;6.978;2023-07-20T02:37:28;5.40;;;3.30;;
20824;SDS011;10573;50.936;6.978;2023-07-20T02:39:54;4.17;;;3.23;;
20824;SDS011;10573;50.936;6.978;2023-07-20T02:42:20;7.45;;;3.13;;
20824;SDS011;10573;50.936;6.978;2023-07-20T02:44:47;5.90;;;3.83;;
20824;SDS011;10573;50.936;6.978;2023-07-20T02:47:13;6.43;;;3.30;;
20824;SDS011;10573;50.936;6.978;2023-07-20T02:49:38;5.93;;;3.72;;
20824;SDS011;10573;50.936;6.978;2023-07-20T02:52:04;5.10;;;3.50;;
20824;SDS011;10573;50.936;6.978;2023-07-20T02:54:30;5.72;;;3.45;;
20824;SDS011;10573;50.936;6.978;2023-07-20T02:56:55;7.10;;;3.57;;
20824;SDS011;10573;50.936;6.978;2023-07-20T02:59:21;8.10;;;3.50;;
20824;SDS011;10573;50.936;6.978;2023-07-20T03:01:47;11.05;;;3.42;;
20824;SDS011;10573;50.936;6.978;2023-07-20T03:04:12;9.70;;;3.70;;
20824;SDS011;10573;50.936;6.978;2023-07-20T03:06:38;7.45;;;3.33;;
20824;SDS011;10573;50.936;6.978;2023-07-20T03:09:03;7.77;;;3.67;;
20824;SDS011;10573;50.936;6.978;2023-07-20T03:11:29;7.07;;;3.47;;
20824;SDS011;10573;50.936;6.978;2023-07-20T03:13:55;6.70;;;3.47;;
20824;SDS011;10573;50.936;6.978;2023-07-20T03:16:21;5.00;;;3.00;;
20824;SDS011;10573;50.936;6.978;2023-07-20T03:18:47;6.37;;;3.33;;
20824;SDS011;10573;50.936;6.978;2023-07-20T03:21:12;8.10;;;3.50;;
20824;SDS011;10573;50.936;6.978;2023-07-20T03:23:38;5.63;;;3.10;;
20824;SDS011;10573;50.936;6.978;2023-07-20T03:26:04;6.25;;;3.30;;
20824;SDS011;10573;50.936;6.978;2023-07-20T03:28:29;8.60;;;3.60;;
20824;SDS011;10573;50.936;6.978;2023-07-20T03:30:55;6.40;;;3.20;;
20824;SDS011;10573;50.936;6.978;2023-07-20T03:33:25;7.07;;;3.53;;
20824;SDS011;10573;50.936;6.978;2023-07-20T03:35:51;7.13;;;3.40;;
20824;SDS011;10573;50.936;6.978;2023-07-20T03:38:17;8.50;;;3.67;;
20824;SDS011;10573;50.936;6.978;2023-07-20T03:40:52;7.13;;;3.33;;
20824;SDS011;10573;50.936;6.978;2023-07-20T03:43:19;7.10;;;3.33;;
20824;SDS011;10573;50.936;6.978;2023-07-20T03:45:46;7.18;;;3.40;;
20824;SDS011;10573;50.936;6.978;2023-07-20T03:48:13;8.43;;;3.35;;
20824;SDS011;10573;50.936;6.978;2023-07-20T03:50:43;7.90;;;3.00;;
20824;SDS011;10573;50.936;6.978;2023-07-20T03:53:10;5.43;;;3.22;;
20824;SDS011;10573;50.936;6.978;2023-07-20T03:55:35;7.82;;;3.42;;
20824;SDS011;10573;50.936;6.978;2023-07-20T03:58:00;6.47;;;3.03;;
20824;SDS011;10573;50.936;6.978;2023-07-20T04:00:26;6.18;;;3.42;;
20824;SDS011;10573;50.936;6.978;2023-07-20T04:02:52;6.00;;;3.13;;
20824;SDS011;10573;50.936;6.978;2023-07-20T04:05:17;4.33;;;2.93;;
20824;SDS011;10573;50.936;6.978;2023-07-20T04:07:43;7.17;;;2.97;;
20824;SDS011;10573;50.936;6.978;2023-07-20T04:10:08;7.07;;;3.00;;
20824;SDS011;10573;50.936;6.978;2023-07-20T04:12:34;7.90;;;3.07;;
20824;SDS011;10573;50.936;6.978;2023-07-20T04:15:00;5.77;;;2.90;;
20824;SDS011;10573;50.936;6.978;2023-07-20T04:17:26;5.90;;;3.10;;
20824;SDS011;10573;50.936;6.978;2023-07-20T04:19:51;6.88;;;3.20;;
20824;SDS011;10573;50.936;6.978;2023-07-20T04:22:17;10.77;;;3.10;;
20824;SDS011;10573;50.936;6.978;2023-07-20T04:24:42;7.30;;;3.20;;
20824;SDS011;10573;50.936;6.978;2023-07-20T04:27:08;7.63;;;3.20;;
20824;SDS011;10573;50.936;6.978;2023-07-20T04:29:33;9.23;;;3.05;;
20824;SDS011;10573;50.936;6.978;2023-07-20T04:31:59;8.57;;;3.40;;
20824;SDS011;10573;50.936;6.978;2023-07-20T04:34:24;8.27;;;3.30;;
20824;SDS011;10573;50.936;6.978;2023-07-20T04:36:49;6.88;;;3.25;;
20824;SDS011;10573;50.936;6.978;2023-07-20T04:39:15;7.47;;;3.00;;
20824;SDS011;10573;50.936;6.978;2023-07-20T04:41:40;8.80;;;3.10;;
20824;SDS011;10573;50.936;6.978;2023-07-20T04:44:06;7.25;;;3.10;;
20824;SDS011;10573;50.936;6.978;2023-07-20T04:46:31;8.90;;;3.10;;
20824;SDS011;10573;50.936;6.978;2023-07-20T04:48:56;7.83;;;3.17;;
20824;SDS011;10573;50.936;6.978;2023-07-20T04:51:22;9.68;;;3.30;;
20824;SDS011;10573;50.936;6.978;2023-07-20T04:53:47;4.97;;;3.00;;
20824;SDS011;10573;50.936;6.978;2023-07-20T04:56:13;6.80;;;2.97;;
20824;SDS011;10573;50.936;6.978;2023-07-20T04:58:39;7.17;;;3.63;;
20824;SDS011;10573;50.936;6.978;2023-07-20T05:01:04;5.83;;;3.37;;
20824;SDS011;10573;50.936;6.978;2023-07-20T05:03:29;11.60;;;3.33;;
20824;SDS011;10573;50.936;6.978;2023-07-20T05:05:55;9.50;;;3.95;;
20824;SDS011;10573;50.936;6.978;2023-07-20T05:08:20;9.17;;;4.17;;
20824;SDS011;10573;50.936;6.978;2023-07-20T05:10:47;8.77;;;3.60;;
20824;SDS011;10573;50.936;6.978;2023-07-20T05:13:12;6.57;;;3.50;;
20824;SDS011;10573;50.936;6.978;2023-07-20T05:15:38;8.77;;;3.47;;
20824;SDS011;10573;50.936;6.978;2023-07-20T05:18:04;9.77;;;4.00;;
20824;SDS011;10573;50.936;6.978;2023-07-20T05:20:29;8.43;;;3.90;;
20824;SDS011;10573;50.936;6.978;2023-07-20T05:22:56;14.85;;;4.53;;
20824;SDS011;10573;50.936;6.978;2023-07-20T05:25:22;10.68;;;4.45;;
20824;SDS011;10573;50.936;6.978;2023-07-20T05:27:48;11.23;;;4.60;;
20824;SDS011;10573;50.936;6.978;2023-07-20T05:30:14;7.45;;;4.65;;
20824;SDS011;10573;50.936;6.978;2023-07-20T05:32:39;8.77;;;4.80;;
20824;SDS011;10573;50.936;6.978;2023-07-20T05:35:06;12.40;;;4.83;;
20824;SDS011;10573;50.936;6.978;2023-07-20T05:37:34;11.27;;;5.30;;
20824;SDS011;10573;50.936;6.978;2023-07-20T05:39:59;7.53;;;4.90;;
20824;SDS011;10573;50.936;6.978;2023-07-20T05:42:24;9.68;;;5.10;;
20824;SDS011;10573;50.936;6.978;2023-07-20T05:44:50;12.70;;;5.50;;
20824;SDS011;10573;50.936;6.978;2023-07-20T05:47:18;12.38;;;4.78;;
20824;SDS011;10573;50.936;6.978;2023-07-20T05:49:43;9.10;;;5.13;;
20824;SDS011;10573;50.936;6.978;2023-07-20T05:52:09;13.00;;;5.30;;
20824;SDS011;10573;50.936;6.978;2023-07-20T05:54:34;13.10;;;5.10;;
20824;SDS011;10573;50.936;6.978;2023-07-20T05:57:00;8.93;;;4.70;;
20824;SDS011;10573;50.936;6.978;2023-07-20T05:59:26;11.53;;;4.97;;
20824;SDS011;10573;50.936;6.978;2023-07-20T06:01:54;10.48;;;5.00;;
20824;SDS011;10573;50.936;6.978;2023-07-20T06:04:20;12.15;;;5.72;;
20824;SDS011;10573;50.936;6.978;2023-07-20T06:06:45;13.90;;;6.33;;
20824;SDS011;10573;50.936;6.978;2023-07-20T06:09:11;11.00;;;6.18;;
20824;SDS011;10573;50.936;6.978;2023-07-20T06:11:37;12.67;;;7.10;;
20824;SDS011;10573;50.936;6.978;2023-07-20T06:14:03;12.32;;;7.38;;
20824;SDS011;10573;50.936;6.978;2023-07-20T06:16:29;13.40;;;7.68;;
20824;SDS011;10573;50.936;6.978;2023-07-20T06:18:54;13.27;;;7.07;;
20824;SDS011;10573;50.936;6.978;2023-07-20T06:21:20;16.95;;;8.85;;
20824;SDS011;10573;50.936;6.978;2023-07-20T06:23:45;13.17;;;9.40;;
20824;SDS011;10573;50.936;6.978;2023-07-20T06:26:11;13.97;;;8.50;;
20824;SDS011;10573;50.936;6.978;2023-07-20T06:28:36;12.32;;;8.45;;
20824;SDS011;10573;50.936;6.978;2023-07-20T06:31:02;14.17;;;7.77;;
20824;SDS011;10573;50.936;6.978;2023-07-20T06:33:28;13.82;;;7.60;;
20824;SDS011;10573;50.936;6.978;2023-07-20T06:35:54;14.37;;;7.70;;
20824;SDS011;10573;50.936;6.978;2023-07-20T06:38:20;15.98;;;7.72;;
20824;SDS011;10573;50.936;6.978;2023-07-20T06:40:46;11.83;;;7.27;;
20824;SDS011;10573;50.936;6.978;2023-07-20T06:43:12;17.23;;;7.97;;
20824;SDS011;10573;50.936;6.978;2023-07-20T06:45:37;11.50;;;7.90;;
20824;SDS011;10573;50.936;6.978;2023-07-20T06:48:03;14.07;;;7.80;;
20824;SDS011;10573;50.936;6.978;2023-07-20T06:50:29;12.43;;;7.50;;
20824;SDS011;10573;50.936;6.978;2023-07-20T06:52:54;10.68;;;8.07;;
20824;SDS011;10573;50.936;6.978;2023-07-20T06:55:19;17.17;;;8.60;;
20824;SDS011;10573;50.936;6.978;2023-07-20T06:57:45;10.10;;;8.18;;
20824;SDS011;10573;50.936;6.978;2023-07-20T07:00:10;11.70;;;7.67;;
20824;SDS011;10573;50.936;6.978;2023-07-20T07:02:37;13.48;;;7.47;;
20824;SDS011;10573;50.936;6.978;2023-07-20T07:05:03;10.83;;;6.80;;
20824;SDS011;10573;50.936;6.978;2023-07-20T07:07:28;11.27;;;6.00;;
20824;SDS011;10573;50.936;6.978;2023-07-20T07:09:54;11.60;;;6.00;;
20824;SDS011;10573;50.936;6.978;2023-07-20T07:12:19;10.27;;;5.22;;
20824;SDS011;10573;50.936;6.978;2023-07-20T07:14:45;9.10;;;5.93;;
20824;SDS011;10573;50.936;6.978;2023-07-20T07:17:10;13.57;;;6.70;;
20824;SDS011;10573;50.936;6.978;2023-07-20T07:19:35;11.13;;;6.23;;
20824;SDS011;10573;50.936;6.978;2023-07-20T07:22:01;11.60;;;5.53;;
20824;SDS011;10573;50.936;6.978;2023-07-20T07:24:27;11.77;;;6.68;;
20824;SDS011;10573;50.936;6.978;2023-07-20T07:26:58;10.10;;;5.97;;
20824;SDS011;10573;50.936;6.978;2023-07-20T07:29:24;8.65;;;5.85;;
20824;SDS011;10573;50.936;6.978;2023-07-20T07:31:49;10.53;;;6.00;;
20824;SDS011;10573;50.936;6.978;2023-07-20T07:34:14;11.33;;;6.00;;
20824;SDS011;10573;50.936;6.978;2023-07-20T07:36:40;7.63;;;5.57;;
20824;SDS011;10573;50.936;6.978;2023-07-20T07:39:05;7.73;;;5.80;;
20824;SDS011;10573;50.936;6.978;2023-07-20T07:41:31;9.83;;;6.13;;
20824;SDS011;10573;50.936;6.978;2023-07-20T07:43:56;9.47;;;5.97;;
20824;SDS011;10573;50.936;6.978;2023-07-20T07:46:21;12.43;;;6.05;;
20824;SDS011;10573;50.936;6.978;2023-07-20T07:48:47;14.60;;;7.77;;
20824;SDS011;10573;50.936;6.978;2023-07-20T07:51:13;11.13;;;5.57;;
20824;SDS011;10573;50.936;6.978;2023-07-20T07:53:39;8.40;;;4.95;;
20824;SDS011;10573;50.936;6.978;2023-07-20T07:56:06;14.98;;;5.53;;
20824;SDS011;10573;50.936;6.978;2023-07-20T07:58:32;10.80;;;5.32;;
20824;SDS011;10573;50.936;6.978;2023-07-20T08:00:58;8.60;;;4.90;;
20824;SDS011;10573;50.936;6.978;2023-07-20T08:03:23;9.97;;;5.83;;
20824;SDS011;10573;50.936;6.978;2023-07-20T08:05:49;8.32;;;4.82;;
20824;SDS011;10573;50.936;6.978;2023-07-20T08:08:15;8.17;;;4.80;;
20824;SDS011;10573;50.936;6.978;2023-07-20T08:10:40;6.37;;;4.23;;
20824;SDS011;10573;50.936;6.978;2023-07-20T08:13:05;5.60;;;4.10;;
20824;SDS011;10573;50.936;6.978;2023-07-20T08:15:31;9.50;;;3.80;;
20824;SDS011;10573;50.936;6.978;2023-07-20T08:17:56;6.07;;;3.73;;
20824;SDS011;10573;50.936;6.978;2023-07-20T08:20:22;9.23;;;4.15;;
20824;SDS011;10573;50.936;6.978;2023-07-20T08:22:51;7.68;;;4.18;;
20824;SDS011;10573;50.936;6.978;2023-07-20T08:25:18;7.78;;;3.40;;
20824;SDS011;10573;50.936;6.978;2023-07-20T08:27:43;8.27;;;3.47;;
20824;SDS011;10573;50.936;6.978;2023-07-20T08:30:11;6.38;;;3.30;;
20824;SDS011;10573;50.936;6.978;2023-07-20T08:32:36;4.95;;;2.58;;
20824;SDS011;10573;50.936;6.978;2023-07-20T08:35:02;5.70;;;2.83;;
20824;SDS011;10573;50.936;6.978;2023-07-20T08:37:27;5.07;;;2.00;;
20824;SDS011;10573;50.936;6.978;2023-07-20T08:39:53;6.10;;;2.17;;
20824;SDS011;10573;50.936;6.978;2023-07-20T08:42:18;6.30;;;2.13;;
20824;SDS011;10573;50.936;6.978;2023-07-20T08:44:44;5.90;;;2.30;;
20824;SDS011;10573;50.936;6.978;2023-07-20T08:47:10;3.70;;;2.50;;
20824;SDS011;10573;50.936;6.978;2023-07-20T08:49:39;5.35;;;2.08;;
20824;SDS011;10573;50.936;6.978;2023-07-20T08:52:04;3.53;;;2.00;;
20824;SDS011;10573;50.936;6.978;2023-07-20T08:54:31;3.93;;;2.00;;
20824;SDS011;10573;50.936;6.978;2023-07-20T08:57:01;3.55;;;1.92;;
20824;SDS011;10573;50.936;6.978;2023-07-20T08:59:28;3.38;;;1.50;;
20824;SDS011;10573;50.936;6.978;2023-07-20T09:01:55;9.68;;;5.97;;
20824;SDS011;10573;50.936;6.978;2023-07-20T09:04:22;21.90;;;16.40;;
20824;SDS011;10573;50.936;6.978;2023-07-20T09:06:48;2.65;;;1.85;;
20824;SDS011;10573;50.936;6.978;2023-07-20T09:09:14;6.05;;;2.03;;
20824;SDS011;10573;50.936;6.978;2023-07-20T09:11:40;3.78;;;1.95;;
20824;SDS011;10573;50.936;6.978;2023-07-20T09:14:06;3.83;;;1.70;;
20824;SDS011;10573;50.936;6.978;2023-07-20T09:16:33;4.65;;;1.73;;
20824;SDS011;10573;50.936;6.978;2023-07-20T09:19:14;3.00;;;1.42;;
20824;SDS011;10573;50.936;6.978;2023-07-20T09:21:46;2.97;;;1.50;;
20824;SDS011;10573;50.936;6.978;2023-07-20T09:24:13;3.90;;;1.63;;
20824;SDS011;10573;50.936;6.978;2023-07-20T09:26:42;2.20;;;0.95;;
20824;SDS011;10573;50.936;6.978;2023-07-20T09:29:09;2.05;;;1.30;;
20824;SDS011;10573;50.936;6.978;2023-07-20T09:31:35;3.22;;;1.40;;
20824;SDS011;10573;50.936;6.978;2023-07-20T09:34:01;4.70;;;1.40;;
20824;SDS011;10573;50.936;6.978;2023-07-20T09:36:26;3.75;;;1.75;;
20824;SDS011;10573;50.936;6.978;2023-07-20T09:38:53;3.67;;;1.55;;
20824;SDS011;10573;50.936;6.978;2023-07-20T09:41:19;2.23;;;1.53;;
20824;SDS011;10573;50.936;6.978;2023-07-20T09:43:46;2.72;;;1.48;;
20824;SDS011;10573;50.936;6.978;2023-07-20T09:46:12;3.50;;;1.53;;
20824;SDS011;10573;50.936;6.978;2023-07-20T09:48:38;3.47;;;1.40;;
20824;SDS011;10573;50.936;6.978;2023-07-20T09:51:04;4.55;;;1.80;;
20824;SDS011;10573;50.936;6.978;2023-07-20T09:53:32;5.00;;;2.00;;
20824;SDS011;10573;50.936;6.978;2023-07-20T09:55:58;5.07;;;2.17;;
20824;SDS011;10573;50.936;6.978;2023-07-20T09:58:25;4.30;;;2.10;;
20824;SDS011;10573;50.936;6.978;2023-07-20T10:00:51;3.27;;;1.67;;
20824;SDS011;10573;50.936;6.978;2023-07-20T10:03:25;4.30;;;1.80;;
20824;SDS011;10573;50.936;6.978;2023-07-20T10:05:57;5.88;;;1.60;;
20824;SDS011;10573;50.936;6.978;2023-07-20T10:08:25;5.50;;;1.53;;
20824;SDS011;10573;50.936;6.978;2023-07-20T10:10:53;7.10;;;1.90;;
20824;SDS011;10573;50.936;6.978;2023-07-20T10:13:25;1.47;;;1.20;;
20824;SDS011;10573;50.936;6.978;2023-07-20T10:16:02;2.92;;;1.20;;
20824;SDS011;10573;50.936;6.978;2023-07-20T10:18:38;2.25;;;1.30;;
20824;SDS011;10573;50.936;6.978;2023-07-20T10:21:10;4.38;;;0.90;;
20824;SDS011;10573;50.936;6.978;2023-07-20T10:23:36;2.55;;;0.90;;
20824;SDS011;10573;50.936;6.978;2023-07-20T10:26:03;2.97;;;1.10;;
20824;SDS011;10573;50.936;6.978;2023-07-20T10:28:30;3.90;;;1.15;;
20824;SDS011;10573;50.936;6.978;2023-07-20T10:30:56;1.95;;;0.95;;
20824;SDS011;10573;50.936;6.978;2023-07-20T10:33:22;2.30;;;1.00;;
20824;SDS011;10573;50.936;6.978;2023-07-20T10:35:54;2.15;;;1.25;;
20824;SDS011;10573;50.936;6.978;2023-07-20T10:41:18;2.20;;;1.23;;
20824;SDS011;10573;50.936;6.978;2023-07-20T10:43:50;2.55;;;1.13;;
20824;SDS011;10573;50.936;6.978;2023-07-20T10:46:36;3.37;;;1.00;;
20824;SDS011;10573;50.936;6.978;2023-07-20T10:49:09;3.58;;;1.13;;
20824;SDS011;10573;50.936;6.978;2023-07-20T10:51:45;1.80;;;1.20;;
20824;SDS011;10573;50.936;6.978;2023-07-20T10:56:41;2.20;;;1.00;;
20824;SDS011;10573;50.936;6.978;2023-07-20T10:59:17;2.40;;;1.07;;
20824;SDS011;10573;50.936;6.978;2023-07-20T11:02:02;1.80;;;1.20;;
20824;SDS011;10573;50.936;6.978;2023-07-20T11:04:43;2.30;;;0.80;;
20824;SDS011;10573;50.936;6.978;2023-07-20T11:07:10;1.83;;;0.80;;
20824;SDS011;10573;50.936;6.978;2023-07-20T11:09:41;2.63;;;1.10;;
20824;SDS011;10573;50.936;6.978;2023-07-20T11:12:14;2.03;;;1.10;;
20824;SDS011;10573;50.936;6.978;2023-07-20T11:14:41;3.50;;;1.00;;
20824;SDS011;10573;50.936;6.978;2023-07-20T11:17:10;4.32;;;1.00;;
20824;SDS011;10573;50.936;6.978;2023-07-20T11:19:37;4.28;;;1.10;;
20824;SDS011;10573;50.936;6.978;2023-07-20T11:22:04;3.00;;;1.05;;
20824;SDS011;10573;50.936;6.978;2023-07-20T11:24:32;1.33;;;0.90;;
20824;SDS011;10573;50.936;6.978;2023-07-20T11:26:58;2.00;;;0.80;;
20824;SDS011;10573;50.936;6.978;2023-07-20T11:29:25;2.35;;;1.10;;
20824;SDS011;10573;50.936;6.978;2023-07-20T11:31:50;1.60;;;0.70;;
20824;SDS011;10573;50.936;6.978;2023-07-20T11:34:17;2.13;;;0.93;;
20824;SDS011;10573;50.936;6.978;2023-07-20T11:36:47;1.60;;;0.80;;
20824;SDS011;10573;50.936;6.978;2023-07-20T11:39:16;2.70;;;0.90;;
20824;SDS011;10573;50.936;6.978;2023-07-20T11:41:46;1.67;;;0.90;;
20824;SDS011;10573;50.936;6.978;2023-07-20T11:44:26;1.50;;;0.90;;
20824;SDS011;10573;50.936;6.978;2023-07-20T11:49:43;1.20;;;0.80;;
20824;SDS011;10573;50.936;6.978;2023-07-20T11:52:15;2.72;;;0.80;;
20824;SDS011;10573;50.936;6.978;2023-07-20T11:54:42;1.90;;;0.75;;
20824;SDS011;10573;50.936;6.978;2023-07-20T11:57:18;3.78;;;0.93;;
20824;SDS011;10573;50.936;6.978;2023-07-20T11:59:53;3.10;;;1.20;;
20824;SDS011;10573;50.936;6.978;2023-07-20T12:02:23;1.15;;;0.70;;
20824;SDS011;10573;50.936;6.978;2023-07-20T12:04:50;3.50;;;0.80;;
20824;SDS011;10573;50.936;6.978;2023-07-20T12:07:18;4.55;;;0.90;;
20824;SDS011;10573;50.936;6.978;2023-07-20T12:09:44;2.70;;;0.75;;
20824;SDS011;10573;50.936;6.978;2023-07-20T12:12:10;1.60;;;0.63;;
20824;SDS011;10573;50.936;6.978;2023-07-20T12:14:39;2.70;;;0.90;;
20824;SDS011;10573;50.936;6.978;2023-07-20T12:17:04;2.53;;;0.70;;
20824;SDS011;10573;50.936;6.978;2023-07-20T12:19:37;2.90;;;0.70;;
20824;SDS011;10573;50.936;6.978;2023-07-20T12:22:04;2.55;;;0.80;;
20824;SDS011;10573;50.936;6.978;2023-07-20T12:24:31;2.97;;;0.50;;
20824;SDS011;10573;50.936;6.978;2023-07-20T12:26:56;2.47;;;0.80;;
20824;SDS011;10573;50.936;6.978;2023-07-20T12:29:24;3.73;;;1.03;;
20824;SDS011;10573;50.936;6.978;2023-07-20T12:31:51;1.57;;;1.00;;
20824;SDS011;10573;50.936;6.978;2023-07-20T12:34:17;2.80;;;1.10;;
20824;SDS011;10573;50.936;6.978;2023-07-20T12:36:42;5.70;;;1.00;;
20824;SDS011;10573;50.936;6.978;2023-07-20T12:39:08;2.43;;;0.93;;
20824;SDS011;10573;50.936;6.978;2023-07-20T12:41:33;4.05;;;1.13;;
20824;SDS011;10573;50.936;6.978;2023-07-20T12:43:58;1.10;;;0.90;;
20824;SDS011;10573;50.936;6.978;2023-07-20T12:46:25;2.50;;;0.85;;
20824;SDS011;10573;50.936;6.978;2023-07-20T12:48:50;3.22;;;0.75;;
20824;SDS011;10573;50.936;6.978;2023-07-20T12:51:16;2.80;;;0.97;;
20824;SDS011;10573;50.936;6.978;2023-07-20T12:53:41;5.53;;;1.30;;
20824;SDS011;10573;50.936;6.978;2023-07-20T12:56:07;2.00;;;1.10;;
20824;SDS011;10573;50.936;6.978;2023-07-20T12:58:32;2.77;;;1.00;;
20824;SDS011;10573;50.936;6.978;2023-07-20T13:00:58;2.67;;;1.13;;
20824;SDS011;10573;50.936;6.978;2023-07-20T13:03:23;2.10;;;0.87;;
20824;SDS011;10573;50.936;6.978;2023-07-20T13:05:49;1.23;;;0.77;;
20824;SDS011;10573;50.936;6.978;2023-07-20T13:08:15;2.97;;;0.80;;
20824;SDS011;10573;50.936;6.978;2023-07-20T13:10:41;2.97;;;1.10;;
20824;SDS011;10573;50.936;6.978;2023-07-20T13:13:06;3.30;;;0.85;;
20824;SDS011;10573;50.936;6.978;2023-07-20T13:15:32;2.17;;;0.80;;
20824;SDS011;10573;50.936;6.978;2023-07-20T13:18:06;2.97;;;0.80;;
20824;SDS011;10573;50.936;6.978;2023-07-20T13:20:31;1.53;;;0.70;;
20824;SDS011;10573;50.936;6.978;2023-07-20T13:22:57;3.57;;;0.90;;
20824;SDS011;10573;50.936;6.978;2023-07-20T13:25:22;2.77;;;1.00;;
20824;SDS011;10573;50.936;6.978;2023-07-20T13:27:48;2.55;;;0.90;;
20824;SDS011;10573;50.936;6.978;2023-07-20T13:30:13;3.43;;;0.93;;
20824;SDS011;10573;50.936;6.978;2023-07-20T13:32:42;2.30;;;0.90;;
20824;SDS011;10573;50.936;6.978;2023-07-20T13:35:08;4.57;;;0.82;;
20824;SDS011;10573;50.936;6.978;2023-07-20T13:37:34;4.50;;;1.15;;
20824;SDS011;10573;50.936;6.978;2023-07-20T13:40:00;1.52;;;0.80;;
20824;SDS011;10573;50.936;6.978;2023-07-20T13:42:25;2.97;;;0.90;;
20824;SDS011;10573;50.936;6.978;2023-07-20T13:44:51;3.37;;;0.90;;
20824;SDS011;10573;50.936;6.978;2023-07-20T13:47:16;2.33;;;0.90;;
20824;SDS011;10573;50.936;6.978;2023-07-20T13:49:43;3.30;;;0.98;;
20824;SDS011;10573;50.936;6.978;2023-07-20T13:52:09;2.73;;;0.90;;
20824;SDS011;10573;50.936;6.978;2023-07-20T13:54:34;3.03;;;1.10;;
20824;SDS011;10573;50.936;6.978;2023-07-20T13:57:00;5.30;;;0.93;;
20824;SDS011;10573;50.936;6.978;2023-07-20T13:59:25;1.60;;;0.77;;
20824;SDS011;10573;50.936;6.978;2023-07-20T14:01:50;3.90;;;1.03;;
20824;SDS011;10573;50.936;6.978;2023-07-20T14:04:16;2.22;;;0.93;;
20824;SDS011;10573;50.936;6.978;2023-07-20T14:06:42;2.77;;;1.00;;
20824;SDS011;10573;50.936;6.978;2023-07-20T14:09:07;1.60;;;1.10;;
20824;SDS011;10573;50.936;6.978;2023-07-20T14:11:33;3.97;;;0.90;;
20824;SDS011;10573;50.936;6.978;2023-07-20T14:13:58;4.83;;;1.00;;
20824;SDS011;10573;50.936;6.978;2023-07-20T14:16:24;1.90;;;1.10;;
20824;SDS011;10573;50.936;6.978;2023-07-20T14:18:50;1.93;;;0.77;;
20824;SDS011;10573;50.936;6.978;2023-07-20T14:21:16;2.85;;;0.90;;
20824;SDS011;10573;50.936;6.978;2023-07-20T14:23:50;1.88;;;0.63;;
20824;SDS011;10573;50.936;6.978;2023-07-20T14:26:16;1.60;;;0.60;;
20824;SDS011;10573;50.936;6.978;2023-07-20T14:28:42;2.87;;;0.97;;
20824;SDS011;10573;50.936;6.978;2023-07-20T14:31:07;3.40;;;0.70;;
20824;SDS011;10573;50.936;6.978;2023-07-20T14:33:33;2.42;;;0.70;;
20824;SDS011;10573;50.936;6.978;2023-07-20T14:35:59;2.58;;;1.90;;
20824;SDS011;10573;50.936;6.978;2023-07-20T14:38:26;5.43;;;1.00;;
20824;SDS011;10573;50.936;6.978;2023-07-20T14:40:52;2.43;;;1.10;;
20824;SDS011;10573;50.936;6.978;2023-07-20T14:43:17;1.23;;;0.80;;
20824;SDS011;10573;50.936;6.978;2023-07-20T14:45:43;1.90;;;0.70;;
20824;SDS011;10573;50.936;6.978;2023-07-20T14:48:10;1.70;;;0.90;;
20824;SDS011;10573;50.936;6.978;2023-07-20T14:50:36;1.88;;;0.80;;
20824;SDS011;10573;50.936;6.978;2023-07-20T14:53:01;2.20;;;1.10;;
20824;SDS011;10573;50.936;6.978;2023-07-20T14:55:28;3.35;;;0.70;;